Time;durP1;ratioP1;P1;durP2;ratioP2;P2;SDS_P1;SDS_P2;PMS_P1;PMS_P2;Temp;Humidity;BMP_temperature;BMP_pressure;BME280_temperature;BME280_humidity;BME280_pressure;Samples;Min_cycle;Max_cycle;Signal;HPM_P1;HPM_P2
2022/01/20 00:00:18;;;;;;;23.77;10.17;;;;;;;-1.93;64.16;100955.68;126333;1099;104229;-81
2022/01/20 00:03:15;;;;;;;25.60;10.47;;;;;;;-1.92;64.92;100959.14;125768;1099;104163;-81
2022/01/20 00:07:01;;;;;;;22.73;9.33;;;;;;;-1.94;64.71;100956.43;126383;1099;104146;-81
2022/01/20 00:09:10;;;;;;;26.03;10.17;;;;;;;-1.96;64.66;100952.83;126302;1099;104177;-81
2022/01/20 00:26:03;;;;;;;21.20;8.68;;;;;;;-1.93;63.88;100929.95;126033;1099;104621;-82
2022/01/20 00:28:43;;;;;;;23.83;9.33;;;;;;;-1.93;64.08;100926.45;126324;1099;104254;-82
2022/01/20 00:31:32;;;;;;;22.47;9.27;;;;;;;-1.94;64.79;100922.99;126336;1099;104149;-81
2022/01/20 00:34:17;;;;;;;24.30;9.90;;;;;;;-1.95;64.12;100918.60;126347;1099;104153;-81
2022/01/20 00:39:38;;;;;;;22.90;9.70;;;;;;;-1.93;64.18;100911.03;126267;1099;104208;-81
2022/01/20 00:42:10;;;;;;;24.63;9.67;;;;;;;-1.93;63.61;100905.88;126346;1099;104240;-82
2022/01/20 00:44:42;;;;;;;24.17;10.03;;;;;;;-1.95;63.97;100902.27;126341;1099;104146;-81
2022/01/20 00:47:17;;;;;;;24.13;10.00;;;;;;;-1.97;63.93;100902.13;126354;1099;104144;-81
2022/01/20 00:49:50;;;;;;;24.27;9.73;;;;;;;-1.97;64.29;100899.56;126310;1099;104144;-81
2022/01/20 00:52:22;;;;;;;26.77;9.83;;;;;;;-1.97;63.90;100888.38;126331;1099;104175;-82
2022/01/20 00:54:56;;;;;;;25.57;10.37;;;;;;;-1.97;64.01;100889.27;126269;1099;104768;-82
2022/01/20 00:57:28;;;;;;;28.37;11.43;;;;;;;-1.98;64.00;100879.73;126272;1099;104284;-81
2022/01/20 00:59:59;;;;;;;28.87;11.20;;;;;;;-1.99;64.73;100875.38;126310;1098;104123;-81
2022/01/20 01:02:33;;;;;;;27.87;11.40;;;;;;;-2.01;64.36;100871.74;126294;1098;104163;-82
2022/01/20 01:05:06;;;;;;;29.97;12.83;;;;;;;-2.04;64.50;100868.89;126329;1099;104150;-81
2022/01/20 01:07:49;;;;;;;34.63;13.60;;;;;;;-2.05;64.61;100861.96;126349;1099;104203;-81
2022/01/20 01:10:23;;;;;;;35.97;13.20;;;;;;;-2.07;64.73;100855.75;126250;1099;104195;-81
2022/01/20 01:13:01;;;;;;;35.10;14.23;;;;;;;-2.08;63.97;100848.82;126388;1099;104162;-81
2022/01/20 01:15:38;;;;;;;33.73;13.27;;;;;;;-2.09;64.29;100844.43;126316;1099;104149;-82
2022/01/20 01:21:27;;;;;;;33.97;13.57;;;;;;;-2.10;64.91;100842.61;126256;1099;105132;-81
2022/01/20 01:24:01;;;;;;;32.73;12.93;;;;;;;-2.13;63.47;100837.22;126339;1099;104143;-82
2022/01/20 01:26:38;;;;;;;35.10;14.57;;;;;;;-2.17;65.00;100830.88;126306;1098;104322;-82
2022/01/20 01:29:26;;;;;;;34.47;14.43;;;;;;;-2.19;64.72;100827.27;126213;1099;105681;-81
2022/01/20 01:31:58;;;;;;;34.63;15.40;;;;;;;-2.23;64.16;100813.24;125342;1099;104181;-81
2022/01/20 01:34:31;;;;;;;36.80;14.83;;;;;;;-2.25;64.29;100808.71;126316;1099;104153;-81
2022/01/20 01:37:07;;;;;;;38.37;15.57;;;;;;;-2.28;64.90;100804.18;126269;1099;104165;-81
2022/01/20 01:39:39;;;;;;;35.70;15.40;;;;;;;-2.28;64.79;100803.29;126292;1099;104236;-81
2022/01/20 01:42:10;;;;;;;36.47;15.57;;;;;;;-2.30;64.78;100798.01;126293;1099;104318;-81
2022/01/20 01:44:42;;;;;;;36.17;15.07;;;;;;;-2.33;63.76;100792.58;125265;1099;104210;-81
2022/01/20 01:47:14;;;;;;;37.37;14.80;;;;;;;-2.33;64.47;100794.27;125308;1099;104293;-81
2022/01/20 01:49:49;;;;;;;37.17;15.40;;;;;;;-2.35;64.15;100786.41;125333;1099;104143;-82
2022/01/20 01:52:22;;;;;;;40.93;16.73;;;;;;;-2.36;64.38;100789.73;126192;1099;104357;-81
2022/01/20 01:54:54;;;;;;;37.37;16.00;;;;;;;-2.38;63.82;100779.31;125411;1099;104380;-81
2022/01/20 01:57:27;;;;;;;36.63;15.87;;;;;;;-2.40;63.83;100777.35;125458;1099;104300;-82
2022/01/20 02:00:04;;;;;;;36.20;14.27;;;;;;;-2.41;64.33;100775.56;126004;1099;104181;-81
2022/01/20 02:02:53;;;;;;;32.93;15.23;;;;;;;-2.45;64.51;100758.05;125325;1099;104156;-81
2022/01/20 02:05:31;;;;;;;34.17;13.90;;;;;;;-2.47;64.72;100751.87;125282;1099;104702;-81
2022/01/20 02:08:34;;;;;;;33.30;14.80;;;;;;;-2.49;64.13;100751.73;125299;1099;104220;-81
2022/01/20 02:19:36;;;;;;;30.83;12.57;;;;;;;-2.54;64.93;100732.41;126234;1099;104150;-81
2022/01/20 02:22:27;;;;;;;28.93;12.03;;;;;;;-2.55;64.03;100721.23;125268;1099;118150;-81
2022/01/20 02:25:27;;;;;;;30.75;11.40;;;;;;;-2.56;65.07;100718.52;125270;1099;104169;-81
2022/01/20 02:28:01;;;;;;;33.33;12.57;;;;;;;-2.56;64.17;100714.28;125308;1099;104145;-81
2022/01/20 02:30:33;;;;;;;30.88;12.75;;;;;;;-2.57;64.71;100712.49;125282;1099;101925;-82
2022/01/20 02:33:08;;;;;;;30.87;13.47;;;;;;;-2.57;64.02;100699.64;125336;1102;104149;-81
2022/01/20 02:35:43;;;;;;;32.93;12.97;;;;;;;-2.60;64.18;100694.23;125332;1099;104345;-81
2022/01/20 02:38:25;;;;;;;31.30;13.43;;;;;;;-2.64;64.70;100692.13;125240;1102;104153;-81
2022/01/20 02:46:43;;;;;;;29.47;12.83;;;;;;;-2.77;65.06;100682.41;126289;1099;104144;-81
2022/01/20 02:49:18;;;;;;;36.47;15.07;;;;;;;-2.81;63.90;100688.02;126357;1099;104143;-81
2022/01/20 02:51:51;;;;;;;33.73;14.10;;;;;;;-2.84;64.77;100684.28;126229;1099;104195;-81
2022/01/20 02:54:24;;;;;;;37.30;15.33;;;;;;;-2.87;63.99;100684.00;126309;1099;104137;-81
2022/01/20 02:56:55;;;;;;;36.77;14.17;;;;;;;-2.90;64.44;100687.17;126279;1099;104163;-82
2022/01/20 02:59:27;;;;;;;38.57;14.87;;;;;;;-2.93;65.05;100676.63;126250;1099;104418;-82
2022/01/20 03:01:59;;;;;;;32.20;14.23;;;;;;;-2.96;63.99;100673.77;126310;1099;104283;-82
2022/01/20 03:04:33;;;;;;;35.23;13.67;;;;;;;-3.00;64.18;100671.70;126289;1099;104137;-81
2022/01/20 03:07:08;;;;;;;35.13;14.70;;;;;;;-3.04;64.55;100664.47;126359;1099;104169;-81
2022/01/20 03:09:40;;;;;;;33.80;13.70;;;;;;;-3.07;64.39;100667.64;126332;1099;104316;-81
2022/01/20 03:12:12;;;;;;;35.70;15.57;;;;;;;-3.09;64.98;100661.48;126304;1099;104172;-81
2022/01/20 03:14:48;;;;;;;32.50;13.95;;;;;;;-3.11;64.24;100663.02;126331;1098;104312;-81
2022/01/20 03:17:18;;;;;;;;;;;;;;;-3.13;65.14;100649.11;125286;1100;104261;-81
2022/01/20 03:19:49;;;;;;;34.13;14.53;;;;;;;-3.13;65.16;100643.97;125346;1102;104198;-81
2022/01/20 03:22:22;;;;;;;34.60;13.20;;;;;;;-3.16;64.65;100639.48;125260;1100;104220;-81
2022/01/20 03:24:59;;;;;;;37.85;14.40;;;;;;;-3.18;65.18;100640.09;125368;1099;104168;-81
2022/01/20 03:27:33;;;;;;;31.17;14.03;;;;;;;-3.18;64.73;100629.83;125310;1102;104178;-81
2022/01/20 03:30:04;;;;;;;31.17;13.45;;;;;;;-3.18;65.16;100634.95;125279;1099;104294;-81
2022/01/20 03:32:37;;;;;;;31.63;14.13;;;;;;;-3.20;64.29;100636.49;125291;1099;104392;-81
2022/01/20 03:35:11;;;;;;;31.10;12.87;;;;;;;-3.19;64.96;100628.94;125319;1100;104184;-81
2022/01/20 03:37:43;;;;;;;33.67;12.90;;;;;;;-3.21;64.71;100630.47;125348;1102;104169;-81
2022/01/20 03:40:17;;;;;;;31.67;13.13;;;;;;;-3.20;65.57;100631.36;125315;1099;104405;-81
2022/01/20 03:42:49;;;;;;;30.30;12.70;;;;;;;-3.19;64.70;100620.34;125172;1102;105665;-81
2022/01/20 03:45:25;;;;;;;32.20;12.60;;;;;;;-3.18;64.68;100619.55;125286;1102;104246;-81
2022/01/20 03:48:06;;;;;;;25.13;10.17;;;;;;;-3.17;65.12;100619.70;125365;1102;104143;-81
2022/01/20 03:53:28;;;;;;;23.80;10.83;;;;;;;-3.15;64.41;100614.70;125225;1102;105683;-81
2022/01/20 03:56:00;;;;;;;30.30;11.33;;;;;;;-3.14;65.36;100617.41;125217;1102;104405;-81
2022/01/20 03:58:37;;;;;;;26.73;10.43;;;;;;;-3.14;65.59;100612.28;125317;1102;104143;-82
2022/01/20 04:01:11;;;;;;;24.83;9.73;;;;;;;-3.12;64.62;100607.28;125274;1100;104309;-81
2022/01/20 04:03:57;;;;;;;21.53;9.10;;;;;;;-3.12;65.01;100599.58;125295;1099;104329;-81
2022/01/20 04:06:38;;;;;;;24.90;10.37;;;;;;;-3.11;65.16;100593.70;125283;1102;104220;-81
2022/01/20 04:09:10;;;;;;;24.60;10.37;;;;;;;-3.10;64.90;100587.78;125255;1102;104274;-81
2022/01/20 04:11:45;;;;;;;27.63;10.50;;;;;;;-3.12;64.59;100584.19;125274;1102;104175;-80
2022/01/20 04:14:17;;;;;;;23.43;9.10;;;;;;;-3.14;65.32;100580.59;125588;1099;104210;-81
2022/01/20 04:17:01;;;;;;;26.00;9.90;;;;;;;-3.17;65.21;100581.20;125421;1099;104663;-81
2022/01/20 04:19:35;;;;;;;25.57;10.08;;;;;;;-3.20;64.80;100580.91;125442;1099;104158;-81
2022/01/20 04:22:07;;;;;;;23.57;9.13;;;;;;;-3.21;64.75;100586.83;125627;1099;104526;-81
2022/01/20 04:24:39;;;;;;;25.20;9.57;;;;;;;-3.23;65.31;100587.45;126307;1099;104249;-81
2022/01/20 04:27:13;;;;;;;25.07;9.63;;;;;;;-3.21;65.25;100585.91;126268;1099;104572;-81
2022/01/20 04:29:45;;;;;;;24.47;9.20;;;;;;;-3.19;65.55;100580.16;126308;1099;104149;-81
2022/01/20 04:32:17;;;;;;;22.73;9.50;;;;;;;-3.19;64.64;100582.73;126257;1099;104389;-81
2022/01/20 04:34:48;;;;;;;24.97;8.87;;;;;;;-3.19;65.50;100575.03;126203;1099;104168;-81
2022/01/20 04:37:21;;;;;;;21.90;9.13;;;;;;;-3.17;64.61;100570.03;126284;1099;104293;-81
2022/01/20 04:39:53;;;;;;;23.37;9.07;;;;;;;-3.16;64.40;100564.16;126340;1099;104188;-81
2022/01/20 04:42:29;;;;;;;27.27;9.07;;;;;;;-3.17;65.33;100568.36;126314;1099;104569;-81
2022/01/20 04:45:04;;;;;;;22.80;9.97;;;;;;;-3.19;64.60;100563.88;126332;1099;104307;-81
2022/01/20 04:47:44;;;;;;;26.97;10.03;;;;;;;-3.20;65.46;100557.81;126272;1099;104204;-81
2022/01/20 04:58:45;;;;;;;24.23;10.40;;;;;;;-3.26;65.46;100563.31;126394;1099;104294;-81
2022/01/20 05:01:20;;;;;;;24.93;10.77;;;;;;;-3.28;64.59;100562.25;126162;1099;104185;-81
2022/01/20 05:04:15;;;;;;;25.90;10.47;;;;;;;-3.30;65.55;100563.78;126313;1099;104185;-81
2022/01/20 05:07:06;;;;;;;27.63;10.93;;;;;;;-3.31;64.62;100561.97;126299;1099;104158;-81
2022/01/20 05:09:38;;;;;;;26.80;10.17;;;;;;;-3.30;65.31;100565.45;125513;1099;104293;-81
2022/01/20 05:12:14;;;;;;;27.43;11.07;;;;;;;-3.31;64.92;100569.66;126330;1099;104268;-81
2022/01/20 05:14:45;;;;;;;24.37;9.10;;;;;;;-3.32;65.18;100567.88;126222;1099;104251;-82
2022/01/20 05:17:17;;;;;;;26.83;10.23;;;;;;;-3.33;65.52;100562.61;126152;1097;104570;-81
2022/01/20 05:19:52;;;;;;;27.87;9.37;;;;;;;-3.32;64.66;100556.70;126162;1099;104284;-82
2022/01/20 05:22:24;;;;;;;24.77;9.78;;;;;;;-3.31;64.67;100545.67;125290;1099;104140;-82
2022/01/20 05:25:00;;;;;;;25.33;9.23;;;;;;;-3.30;64.67;100548.39;125296;1099;104169;-82
2022/01/20 05:27:32;;;;;;;25.97;9.73;;;;;;;-3.31;65.25;100546.56;125248;1099;104251;-82
2022/01/20 05:30:04;;;;;;;21.97;8.33;;;;;;;-3.31;64.95;100554.27;125208;1102;104666;-82
2022/01/20 05:32:38;;;;;;;25.13;9.97;;;;;;;-3.32;65.00;100555.05;125194;1102;104249;-82
2022/01/20 05:35:12;;;;;;;25.20;9.43;;;;;;;-3.32;64.72;100549.92;125186;1099;104232;-82
2022/01/20 05:37:51;;;;;;;22.50;8.40;;;;;;;-3.32;65.37;100557.62;125277;1102;104310;-83
2022/01/20 05:40:22;;;;;;;23.13;9.30;;;;;;;-3.32;65.71;100555.05;125283;1099;104175;-82
2022/01/20 05:42:55;;;;;;;21.50;9.20;;;;;;;-3.32;65.26;100552.48;125335;1099;104210;-82
2022/01/20 05:45:28;;;;;;;27.17;9.77;;;;;;;-3.32;65.58;100544.78;125260;1099;104172;-82
2022/01/20 05:48:09;;;;;;;24.03;9.70;;;;;;;-3.30;65.40;100537.23;125404;1102;104175;-82
2022/01/20 05:50:50;;;;;;;21.33;8.10;;;;;;;-3.29;65.16;100521.05;126208;1099;104294;-82
2022/01/20 05:53:21;;;;;;;23.20;9.35;;;;;;;-3.27;65.44;100517.87;125289;1099;104566;-83
2022/01/20 05:55:53;;;;;;;22.83;9.80;;;;;;;-3.25;65.01;100523.14;125839;1099;104171;-82
2022/01/20 05:58:25;;;;;;;23.83;9.13;;;;;;;-3.21;65.77;100525.23;126111;1099;101990;-82
2022/01/20 06:00:57;;;;;;;;;;;;;;;-3.21;65.72;100524.31;126201;1099;104143;-83
2022/01/20 06:03:38;;;;;;;24.47;9.80;;;;;;;-3.19;65.22;100527.94;126177;1099;104789;-80
2022/01/20 06:06:14;;;;;;;28.27;10.43;;;;;;;-3.16;64.83;100515.38;126092;1099;104711;-83
2022/01/20 06:08:47;;;;;;;23.52;9.98;;;;;;;-3.13;65.16;100510.48;126215;1099;104287;-82
2022/01/20 06:11:26;;;;;;;28.07;10.83;;;;;;;-3.07;65.79;100505.91;125917;1099;104277;-82
2022/01/20 06:14:08;;;;;;;22.50;10.00;;;;;;;-3.03;65.20;100507.11;125948;1097;104163;-83
2022/01/20 06:16:44;;;;;;;25.53;9.50;;;;;;;-2.99;64.99;100493.76;125753;1099;104226;-83
2022/01/20 06:19:27;;;;;;;25.10;10.40;;;;;;;-2.97;65.56;100495.71;125881;1099;104220;-83
2022/01/20 06:22:01;;;;;;;23.80;10.00;;;;;;;-2.93;65.25;100487.53;125879;1099;104380;-81
2022/01/20 06:24:36;;;;;;;27.10;10.77;;;;;;;-2.90;65.07;100490.37;125879;1099;104328;-83
2022/01/20 06:27:11;;;;;;;26.87;10.80;;;;;;;-2.86;65.55;100483.83;125824;1099;104133;-83
2022/01/20 06:29:44;;;;;;;25.43;11.03;;;;;;;-2.78;65.14;100479.37;125051;1102;103092;-82
2022/01/20 06:32:20;;;;;;;27.40;10.90;;;;;;;-2.72;64.62;100467.06;125061;1102;104272;-80
2022/01/20 06:35:01;;;;;;;29.73;10.77;;;;;;;-2.65;65.04;100466.84;125078;1102;104248;-81
2022/01/20 06:37:40;;;;;;;22.97;9.90;;;;;;;-2.59;65.01;100462.21;125020;1102;104306;-82
2022/01/20 06:40:20;;;;;;;29.27;10.43;;;;;;;-2.48;65.37;100462.26;125031;1102;104351;-83
2022/01/20 06:42:54;;;;;;;26.53;10.70;;;;;;;-2.40;65.34;100464.73;124779;1102;104169;-82
2022/01/20 06:45:43;;;;;;;24.60;10.67;;;;;;;-2.31;64.64;100471.42;124998;1102;104381;-84
2022/01/20 06:48:23;;;;;;;21.03;9.20;;;;;;;-2.22;64.28;100472.22;125088;1102;104204;-82
2022/01/20 06:51:15;;;;;;;22.25;8.30;;;;;;;-2.13;65.37;100460.16;125267;1102;104407;-81
2022/01/20 06:53:51;;;;;;;;;;;;;;;-2.02;64.91;100455.92;125096;1102;104207;-81
2022/01/20 06:56:26;;;;;;;26.23;10.40;;;;;;;-1.91;65.20;100449.12;125072;1103;104217;-82
2022/01/20 06:59:04;;;;;;;22.55;9.70;;;;;;;-1.89;63.88;100438.16;125097;1102;104287;-83
2022/01/20 07:01:44;;;;;;;26.37;9.50;;;;;;;-1.87;64.84;100439.22;125114;1102;104235;-82
2022/01/20 07:04:27;;;;;;;24.43;9.83;;;;;;;-1.80;64.04;100445.77;124922;1102;104383;-81
2022/01/20 07:07:16;;;;;;;24.43;9.67;;;;;;;-1.77;64.33;100433.16;124996;1102;104262;-81
2022/01/20 07:09:49;;;;;;;27.00;10.75;;;;;;;-1.70;63.86;100427.77;125151;1102;104344;-80
2022/01/20 07:12:32;;;;;;;28.70;10.80;;;;;;;-1.63;63.97;100424.02;125034;1102;104519;-79
2022/01/20 07:15:14;;;;;;;26.73;10.50;;;;;;;-1.57;65.28;100423.60;125008;1102;104230;-82
2022/01/20 07:17:48;;;;;;;30.17;11.20;;;;;;;-1.48;64.73;100421.79;125008;1102;104233;-82
2022/01/20 07:20:26;;;;;;;26.67;10.63;;;;;;;-1.39;64.97;100419.08;125085;1102;104265;-82
2022/01/20 07:23:13;;;;;;;27.60;11.10;;;;;;;-1.33;64.25;100398.98;125082;1102;104232;-82
2022/01/20 07:26:04;;;;;;;30.50;12.10;;;;;;;-1.29;64.11;100399.36;124986;1102;104236;-81
2022/01/20 07:28:39;;;;;;;25.97;10.80;;;;;;;-1.22;65.27;100395.59;125076;1102;104197;-81
2022/01/20 07:31:16;;;;;;;27.95;11.00;;;;;;;-1.15;63.99;100399.59;125088;1102;104166;-82
2022/01/20 07:33:48;;;;;;;30.00;12.00;;;;;;;-1.11;63.97;100405.11;125079;1099;104238;-80
2022/01/20 07:36:34;;;;;;;28.47;11.43;;;;;;;-1.07;64.28;100408.82;125083;1102;104445;-80
2022/01/20 07:39:11;;;;;;;;;;;;;;;-1.01;63.93;100408.39;125361;1099;104469;-79
2022/01/20 07:42:05;;;;;;;30.27;12.03;;;;;;;-0.93;64.54;100407.35;125029;1099;104964;-81
2022/01/20 07:45:21;;;;;;;27.70;11.40;;;;;;;-0.77;64.57;100397.47;124908;1102;104338;-81
2022/01/20 07:51:24;;;;;;;28.27;11.43;;;;;;;-0.58;63.84;100397.26;125745;1099;102212;-81
2022/01/20 07:53:56;;;;;;;26.33;10.70;;;;;;;-0.49;63.60;100391.91;124960;1103;104338;-80
2022/01/20 07:56:34;;;;;;;26.57;11.23;;;;;;;-0.40;63.89;100386.57;124950;1102;104194;-81
2022/01/20 07:59:08;;;;;;;26.00;11.25;;;;;;;-0.29;63.68;100392.56;125183;1102;104176;-80
2022/01/20 08:01:45;;;;;;;28.53;11.50;;;;;;;-0.23;64.15;100396.50;125331;1102;104188;-80
2022/01/20 08:04:23;;;;;;;28.93;12.00;;;;;;;-0.14;64.35;100386.00;125288;1102;104188;-80
2022/01/20 08:07:01;;;;;;;27.20;11.90;;;;;;;-0.06;63.75;100387.48;125218;1102;104281;-82
2022/01/20 08:09:34;;;;;;;31.97;11.73;;;;;;;0.01;63.45;100382.78;125227;1102;104398;-82
2022/01/20 08:12:22;;;;;;;28.20;11.97;;;;;;;0.08;63.63;100383.36;125052;1099;102308;-80
2022/01/20 08:15:36;;;;;;;28.60;11.80;;;;;;;0.20;63.81;100380.78;125099;1099;104152;-82
2022/01/20 08:18:13;;;;;;;28.70;12.10;;;;;;;0.32;63.70;100373.07;125209;1099;104347;-82
2022/01/20 08:20:51;;;;;;;28.67;12.60;;;;;;;0.40;63.49;100363.31;125080;1099;104367;-83
2022/01/20 08:23:38;;;;;;;27.07;12.90;;;;;;;0.53;64.05;100373.73;125092;1099;104265;-82
2022/01/20 08:26:19;;;;;;;28.57;11.97;;;;;;;0.63;62.74;100372.76;125094;1102;104264;-82
2022/01/20 08:28:56;;;;;;;30.40;12.13;;;;;;;0.71;63.49;100369.92;124819;1102;104241;-81
2022/01/20 08:31:31;;;;;;;27.10;11.50;;;;;;;0.82;63.16;100362.95;124960;1102;102365;-81
2022/01/20 08:34:08;;;;;;;26.00;11.70;;;;;;;0.87;62.94;100366.79;125010;1102;104236;-82
2022/01/20 08:37:05;;;;;;;24.70;10.83;;;;;;;0.98;62.97;100358.89;125102;1102;104239;-84
2022/01/20 08:39:45;;;;;;;27.00;12.20;;;;;;;1.07;62.87;100364.72;125081;1102;104185;-83
2022/01/20 08:42:28;;;;;;;26.27;11.47;;;;;;;1.12;61.07;100350.42;125076;1102;104445;-82
2022/01/20 08:45:16;;;;;;;25.67;11.57;;;;;;;1.16;62.50;100349.86;125173;1102;104297;-84
2022/01/20 08:47:54;;;;;;;25.17;12.03;;;;;;;1.28;62.07;100347.27;125134;1102;104287;-82
2022/01/20 08:50:39;;;;;;;27.43;12.17;;;;;;;1.34;62.20;100342.52;124892;1102;104900;-83
2022/01/20 08:53:31;;;;;;;26.87;11.93;;;;;;;1.44;61.81;100331.12;125172;1102;111069;-82
2022/01/20 08:56:05;;;;;;;27.83;11.90;;;;;;;1.48;61.49;100340.89;124961;1102;104236;-81
2022/01/20 08:58:40;;;;;;;28.07;11.47;;;;;;;1.59;61.81;100339.02;125197;1102;104233;-81
2022/01/20 09:01:16;;;;;;;28.27;11.37;;;;;;;1.73;62.28;100348.65;125703;1099;104236;-81
2022/01/20 09:03:53;;;;;;;31.37;12.53;;;;;;;1.85;61.38;100340.80;125171;1100;104245;-82
2022/01/20 09:06:38;;;;;;;28.53;10.30;;;;;;;1.96;62.24;100328.59;125865;1099;104191;-85
2022/01/20 09:09:21;;;;;;;22.33;10.73;;;;;;;2.02;61.30;100334.18;125097;1099;104184;-81
2022/01/20 09:12:15;;;;;;;23.30;10.43;;;;;;;2.09;60.32;100328.63;125141;1100;104197;-80
2022/01/20 09:17:57;;;;;;;28.33;10.63;;;;;;;2.23;60.71;100329.55;125144;1103;104214;-81
2022/01/20 09:20:49;;;;;;;27.87;11.80;;;;;;;2.27;61.21;100321.17;125110;1102;104334;-80
2022/01/20 09:23:26;;;;;;;24.93;11.00;;;;;;;2.36;61.33;100304.47;125102;1102;104195;-80
2022/01/20 09:26:03;;;;;;;24.80;10.93;;;;;;;2.43;60.76;100291.09;125143;1102;104185;-81
2022/01/20 09:28:42;;;;;;;29.07;10.90;;;;;;;2.49;61.05;100292.41;124897;1105;104169;-81
2022/01/20 09:31:21;;;;;;;25.30;11.53;;;;;;;2.54;60.33;100277.17;124778;1102;104185;-82
2022/01/20 09:33:57;;;;;;;23.17;10.07;;;;;;;2.62;59.10;100272.48;124807;1102;104235;-80
2022/01/20 09:36:33;;;;;;;26.97;11.17;;;;;;;2.69;60.60;100259.98;124721;1105;104453;-81
2022/01/20 09:39:07;;;;;;;23.63;9.73;;;;;;;2.76;60.15;100250.92;124776;1105;104187;-82
2022/01/20 09:41:59;;;;;;;26.73;11.07;;;;;;;2.78;59.83;100245.84;124887;1102;104383;-82
2022/01/20 09:44:35;;;;;;;23.90;10.53;;;;;;;2.83;59.85;100229.75;124863;1102;102936;-82
2022/01/20 09:47:16;;;;;;;21.90;10.37;;;;;;;2.88;60.33;100237.81;124820;1102;104153;-84
2022/01/20 09:50:30;;;;;;;31.33;11.07;;;;;;;2.97;60.28;100227.13;124935;1102;104217;-85
2022/01/20 09:53:30;;;;;;;28.20;11.20;;;;;;;3.07;60.49;100216.54;125128;1102;104319;-81
2022/01/20 09:56:18;;;;;;;22.97;11.37;;;;;;;3.14;60.26;100222.98;125088;1100;104256;-83
2022/01/20 09:58:57;;;;;;;29.85;11.45;;;;;;;3.18;59.88;100212.89;125139;1099;104165;-80
2022/01/20 10:01:46;;;;;;;23.40;10.10;;;;;;;3.25;60.05;100211.55;125147;1102;104335;-82
2022/01/20 10:04:35;;;;;;;27.17;10.67;;;;;;;3.26;60.22;100204.66;125099;1102;104158;-81
2022/01/20 10:07:34;;;;;;;25.03;11.07;;;;;;;3.33;59.77;100206.83;125145;1102;104213;-79
2022/01/20 10:10:55;;;;;;;25.97;10.90;;;;;;;3.35;59.25;100200.02;125128;1102;104317;-82
2022/01/20 10:14:05;;;;;;;26.90;11.20;;;;;;;3.38;59.85;100189.83;125057;1102;104187;-81
2022/01/20 10:16:51;;;;;;;31.10;11.63;;;;;;;3.48;59.75;100192.17;125100;1102;104465;-81
2022/01/20 10:19:32;;;;;;;28.33;11.10;;;;;;;3.53;59.66;100187.27;125013;1099;104345;-81
2022/01/20 10:22:24;;;;;;;24.00;10.13;;;;;;;3.59;59.70;100182.43;125018;1102;104596;-80
2022/01/20 10:25:24;;;;;;;24.80;10.13;;;;;;;3.64;59.17;100182.70;124869;1102;107444;-80
2022/01/20 10:28:16;;;;;;;24.03;10.03;;;;;;;3.63;58.75;100175.71;125022;1102;104194;-81
2022/01/20 10:30:57;;;;;;;24.57;10.47;;;;;;;3.62;58.82;100177.42;125231;1102;104402;-82
2022/01/20 10:33:41;;;;;;;26.03;10.50;;;;;;;3.62;58.03;100177.42;125055;1102;104647;-82
2022/01/20 10:36:26;;;;;;;24.67;9.90;;;;;;;3.66;58.68;100168.10;125013;1102;104297;-87
2022/01/20 10:39:24;;;;;;;23.73;10.88;;;;;;;3.70;58.65;100165.78;124897;1101;104213;-84
2022/01/20 10:42:09;;;;;;;20.53;8.73;;;;;;;3.74;57.12;100143.48;125069;1102;104338;-86
2022/01/20 10:44:44;;;;;;;;;;;;;;;3.78;58.35;100143.74;124854;1102;104185;-84
2022/01/20 10:47:24;;;;;;;24.97;10.13;;;;;;;3.84;58.19;100147.52;124814;1102;104355;-84
2022/01/20 10:53:32;;;;;;;17.87;7.17;;;;;;;3.91;57.36;100134.98;124725;1102;104261;-80
2022/01/20 10:56:14;;;;;;;29.00;9.37;;;;;;;3.95;58.15;100142.11;124811;1105;104332;-80
2022/01/20 10:58:51;;;;;;;21.57;8.40;;;;;;;4.01;57.08;100141.56;124876;1105;104370;-84
2022/01/20 11:01:28;;;;;;;21.83;8.37;;;;;;;4.04;58.03;100131.36;124609;1105;104277;-83
2022/01/20 11:04:18;;;;;;;22.37;8.77;;;;;;;4.07;57.61;100125.45;124482;1105;104242;-83
2022/01/20 11:06:55;;;;;;;19.13;8.57;;;;;;;4.04;57.41;100107.11;125087;1105;107129;-84
2022/01/20 11:09:44;;;;;;;21.43;8.43;;;;;;;4.11;57.38;100119.59;124810;1105;104351;-82
2022/01/20 11:12:52;;;;;;;21.53;8.33;;;;;;;4.10;56.28;100117.83;124703;1105;104201;-81
2022/01/20 11:15:31;;;;;;;21.43;7.97;;;;;;;4.10;55.95;100112.64;124438;1105;104166;-80
2022/01/20 11:18:17;;;;;;;21.03;8.10;;;;;;;4.14;56.63;100111.98;124714;1105;104188;-81
2022/01/20 11:21:02;;;;;;;18.97;7.60;;;;;;;4.17;57.57;100109.55;124670;1105;104395;-80
2022/01/20 11:23:53;;;;;;;25.00;8.60;;;;;;;4.19;57.32;100100.16;124675;1105;104265;-81
2022/01/20 11:27:10;;;;;;;18.60;7.63;;;;;;;4.22;57.29;100089.91;124679;1105;104328;-83
2022/01/20 11:30:29;;;;;;;20.43;7.47;;;;;;;4.23;56.82;100091.70;125065;1102;104226;-84
2022/01/20 11:33:49;;;;;;;22.30;8.40;;;;;;;4.21;55.96;100088.14;125040;1102;104191;-84
2022/01/20 11:36:31;;;;;;;20.03;8.10;;;;;;;4.20;55.84;100091.54;125413;1100;102925;-81
2022/01/20 11:39:12;;;;;;;20.07;7.87;;;;;;;4.16;55.89;100089.61;125560;1099;104187;-82
2022/01/20 11:41:49;;;;;;;20.53;8.83;;;;;;;4.16;56.52;100078.30;125098;1099;104194;-84
2022/01/20 11:44:33;;;;;;;21.63;8.70;;;;;;;4.17;55.88;100085.30;125728;1099;104201;-82
2022/01/20 11:47:24;;;;;;;;;;;;;;;;;;;;;
2022/01/20 11:50:08;;;;;;;23.50;9.13;;;;;;;4.16;56.50;100065.31;125715;1099;104294;-81
2022/01/20 11:52:44;;;;;;;21.40;9.17;;;;;;;4.13;56.14;100058.27;125785;1099;104162;-79
2022/01/20 11:55:24;;;;;;;22.90;9.15;;;;;;;4.13;56.54;100058.27;125626;1099;104149;-81
2022/01/20 11:57:58;;;;;;;26.03;10.17;;;;;;;4.14;56.38;100054.84;125786;1099;104284;-80
2022/01/20 12:00:32;;;;;;;20.97;9.43;;;;;;;4.10;56.05;100053.80;125916;1099;104175;-79
2022/01/20 12:03:13;;;;;;;20.00;8.58;;;;;;;4.09;54.45;100052.00;125834;1099;104172;-80
2022/01/20 12:06:05;;;;;;;22.60;9.33;;;;;;;4.08;55.80;100041.53;125974;1099;102883;-82
2022/01/20 12:09:19;;;;;;;19.97;9.10;;;;;;;4.06;55.34;100035.38;125381;1099;104274;-81
2022/01/20 12:12:25;;;;;;;22.20;9.70;;;;;;;4.04;55.33;100050.87;125777;1099;104143;-82
2022/01/20 12:15:12;;;;;;;19.87;8.80;;;;;;;4.06;55.34;100045.76;125990;1099;104210;-80
2022/01/20 12:17:51;;;;;;;20.75;8.20;;;;;;;4.06;55.16;100046.64;125869;1098;104313;-83
2022/01/20 12:20:41;;;;;;;22.93;8.67;;;;;;;4.07;54.61;100040.65;125658;1099;105375;-80
2022/01/20 12:23:28;;;;;;;21.57;9.33;;;;;;;4.12;55.47;100030.52;125617;1099;104190;-82
2022/01/20 12:30:26;;;;;;;20.80;9.30;;;;;;;4.18;54.52;100019.58;125009;1102;104123;-84
2022/01/20 12:33:15;;;;;;;18.55;8.25;;;;;;;4.18;55.29;100030.84;125017;1102;104448;-81
2022/01/20 12:35:54;;;;;;;22.00;8.53;;;;;;;4.17;54.84;100025.56;125153;1102;103993;-79
2022/01/20 12:38:32;;;;;;;23.60;9.10;;;;;;;4.16;54.95;100021.17;125269;1102;104194;-81
2022/01/20 12:44:24;;;;;;;22.57;9.30;;;;;;;4.11;54.50;100015.73;125284;1102;104268;-81
2022/01/20 12:47:03;;;;;;;24.33;9.67;;;;;;;4.11;54.55;100015.73;125071;1102;104332;-80
2022/01/20 12:49:39;;;;;;;23.03;9.53;;;;;;;4.11;53.55;100011.45;125230;1102;104223;-81
2022/01/20 12:52:29;;;;;;;21.97;9.63;;;;;;;4.14;53.75;100022.00;125222;1101;104184;-82
2022/01/20 12:55:09;;;;;;;21.05;8.95;;;;;;;4.14;53.97;100021.09;125204;1102;104484;-83
2022/01/20 12:58:08;;;;;;;23.33;9.63;;;;;;;4.16;54.06;100031.56;125593;1099;104385;-85
2022/01/20 13:00:51;;;;;;;22.43;9.20;;;;;;;4.16;53.72;100034.16;126175;1099;104175;-80
2022/01/20 13:03:41;;;;;;;24.37;9.13;;;;;;;4.14;54.15;100032.39;126049;1099;104152;-83